Time;durP1;ratioP1;P1;durP2;ratioP2;P2;SDS_P1;SDS_P2;PMS_P1;PMS_P2;Temp;Humidity;BMP_temperature;BMP_pressure;BME280_temperature;BME280_humidity;BME280_pressure;Samples;Min_cycle;Max_cycle;Signal;HPM_P1;HPM_P2
2022/04/20 00:01:12;;;;;;;8.60;6.72;;;;;;;4.43;88.67;100368.63;4972644;28;20151;-80
2022/04/20 00:03:38;;;;;;;8.38;7.22;;;;;;;4.70;88.83;100403.88;4992198;28;20033;-82
2022/04/20 00:06:05;;;;;;;8.30;6.93;;;;;;;4.74;88.89;100421.31;4973482;28;20069;-81
2022/04/20 00:08:32;;;;;;;8.30;6.50;;;;;;;4.64;88.49;100388.16;4973625;28;20610;-81
2022/04/20 00:11:01;;;;;;;8.18;6.10;;;;;;;4.62;88.55;100395.03;4988883;28;20577;-79
2022/04/20 00:13:27;;;;;;;8.25;6.63;;;;;;;4.56;88.46;100368.91;4988546;28;20460;-82
2022/04/20 00:15:53;;;;;;;9.35;6.95;;;;;;;4.25;88.82;100375.97;4987484;28;20033;-81
2022/04/20 00:18:18;;;;;;;10.20;7.97;;;;;;;4.23;89.43;100419.19;4992171;28;20040;-79
2022/04/20 00:20:44;;;;;;;9.30;7.10;;;;;;;4.41;89.56;100418.78;4985412;28;20060;-81
2022/04/20 00:23:09;;;;;;;9.93;7.88;;;;;;;4.65;89.12;100427.16;4992484;28;20143;-78
2022/04/20 00:25:35;;;;;;;11.20;8.25;;;;;;;4.35;89.11;100380.53;4971549;28;20387;-79
2022/04/20 00:28:01;;;;;;;10.40;7.78;;;;;;;4.58;89.35;100421.78;4984409;28;20052;-80
2022/04/20 00:30:26;;;;;;;9.70;8.20;;;;;;;4.19;89.43;100422.53;4990542;28;20045;-80
2022/04/20 00:32:52;;;;;;;9.45;8.18;;;;;;;4.44;89.93;100414.53;4989470;28;20054;-79
2022/04/20 00:35:17;;;;;;;10.60;7.00;;;;;;;4.50;89.41;100399.97;4999340;28;20062;-80
2022/04/20 00:37:50;;;;;;;8.93;7.07;;;;;;;4.06;89.53;100381.53;5000738;28;20042;-79
2022/04/20 00:40:17;;;;;;;11.88;9.30;;;;;;;4.07;89.80;100391.94;4999369;28;20049;-80
2022/04/20 00:42:43;;;;;;;9.38;7.32;;;;;;;4.27;89.90;100436.63;5008860;28;20037;-80
2022/04/20 00:45:11;;;;;;;9.60;8.32;;;;;;;4.27;90.06;100431.41;5004250;28;20041;-80
2022/04/20 00:47:38;;;;;;;10.75;7.97;;;;;;;4.26;90.02;100427.09;5000236;28;20041;-80
2022/04/20 00:50:06;;;;;;;11.65;7.60;;;;;;;4.09;90.01;100405.84;5005528;28;20046;-79
2022/04/20 00:52:31;;;;;;;10.55;7.72;;;;;;;4.18;89.91;100403.50;5003152;28;20140;-80
2022/04/20 00:54:57;;;;;;;18.27;7.55;;;;;;;3.99;89.77;100390.88;4956514;28;20036;-80
2022/04/20 00:57:23;;;;;;;10.60;7.72;;;;;;;3.93;90.47;100409.78;5007806;28;20895;-78
2022/04/20 00:59:49;;;;;;;11.48;8.40;;;;;;;3.94;90.72;100385.56;4988919;28;20042;-78
2022/04/20 01:02:15;;;;;;;11.48;9.02;;;;;;;4.23;90.28;100425.25;5010356;28;20045;-81
2022/04/20 01:04:40;;;;;;;10.27;7.88;;;;;;;4.13;90.17;100407.69;4985981;28;20065;-81
2022/04/20 01:07:13;;;;;;;11.60;8.65;;;;;;;4.17;90.10;100439.81;5009342;28;20064;-77
2022/04/20 01:09:40;;;;;;;10.93;8.65;;;;;;;3.93;90.20;100385.50;5015342;28;20120;-78
2022/04/20 01:12:07;;;;;;;9.30;7.70;;;;;;;4.13;90.14;100417.19;5011106;28;20072;-78
2022/04/20 01:14:33;;;;;;;10.18;8.98;;;;;;;4.01;89.45;100378.81;4988510;28;20058;-82
2022/04/20 01:16:58;;;;;;;12.68;8.85;;;;;;;4.10;89.10;100406.75;5004480;28;20493;-81
2022/04/20 01:19:38;;;;;;;12.70;8.13;;;;;;;3.93;89.72;100404.59;5003403;28;20536;-79
2022/04/20 01:22:05;;;;;;;11.75;7.95;;;;;;;4.18;89.45;100416.47;5005156;28;20374;-81
2022/04/20 01:24:31;;;;;;;11.65;8.13;;;;;;;4.23;89.76;100420.06;5010282;28;20557;-81
2022/04/20 01:26:57;;;;;;;11.77;8.88;;;;;;;4.20;89.30;100432.09;5008843;28;20418;-82
2022/04/20 01:29:23;;;;;;;11.40;8.75;;;;;;;4.25;89.35;100424.44;5013615;28;20041;-79
2022/04/20 01:31:49;;;;;;;9.32;7.63;;;;;;;3.92;89.38;100382.03;4990064;28;20749;-79
2022/04/20 01:34:16;;;;;;;10.63;8.38;;;;;;;4.23;89.43;100419.19;5006315;28;20068;-82
2022/04/20 01:36:42;;;;;;;11.60;8.00;;;;;;;4.25;89.68;100417.50;4997584;28;20041;-81
2022/04/20 01:39:07;;;;;;;10.88;8.77;;;;;;;4.20;89.31;100419.13;4993208;28;20456;-82
2022/04/20 01:41:33;;;;;;;12.05;9.10;;;;;;;4.16;88.90;100401.69;5010619;28;20072;-81
2022/04/20 01:43:58;;;;;;;9.27;7.85;;;;;;;3.97;89.26;100375.25;4997977;28;20046;-82
2022/04/20 01:46:23;;;;;;;10.43;8.38;;;;;;;4.12;89.36;100410.22;4990554;28;20396;-82
2022/04/20 01:48:49;;;;;;;9.27;8.13;;;;;;;3.90;89.47;100378.53;5014027;28;20029;-79
2022/04/20 01:54:01;;;;;;;9.32;7.15;;;;;;;3.80;89.25;100356.66;5010330;28;23625;-82
2022/04/20 01:56:26;;;;;;;10.90;8.38;;;;;;;3.73;89.51;100362.50;5014172;28;20449;-82
2022/04/20 01:58:52;;;;;;;10.43;9.25;;;;;;;3.45;89.68;100353.09;5012938;28;20050;-81
2022/04/20 02:04:02;;;;;;;10.20;8.55;;;;;;;3.81;89.82;100391.25;5009495;28;20044;-80
2022/04/20 02:06:29;;;;;;;11.35;9.48;;;;;;;3.47;90.08;100382.56;5015717;28;20030;-82
2022/04/20 02:08:55;;;;;;;14.70;8.85;;;;;;;3.92;90.61;100394.16;5015266;28;20053;-81
2022/04/20 02:11:21;;;;;;;9.27;7.80;;;;;;;3.79;90.65;100392.94;5009743;28;20049;-82
2022/04/20 02:13:46;;;;;;;11.13;9.63;;;;;;;3.86;90.16;100394.84;4963447;28;20922;-82
2022/04/20 02:16:12;;;;;;;10.93;8.50;;;;;;;3.97;90.41;100403.81;5017849;28;20898;-82
2022/04/20 02:18:40;;;;;;;12.40;8.68;;;;;;;3.61;90.45;100340.56;5019136;28;20037;-82
2022/04/20 02:21:05;;;;;;;9.55;7.40;;;;;;;3.99;90.05;100404.72;5009990;28;20139;-82
2022/04/20 02:23:32;;;;;;;10.60;8.60;;;;;;;4.03;90.04;100408.31;4987936;28;20148;-80
2022/04/20 02:25:58;;;;;;;19.80;9.45;;;;;;;3.20;90.19;100342.88;4991798;28;20046;-82
2022/04/20 02:28:23;;;;;;;11.32;8.45;;;;;;;3.59;90.56;100398.47;5011617;28;20060;-81
2022/04/20 02:30:49;;;;;;;11.23;8.45;;;;;;;3.66;90.62;100373.56;5014669;28;20083;-81
2022/04/20 02:33:14;;;;;;;16.02;9.43;;;;;;;3.83;90.87;100399.97;4995885;28;20137;-82
2022/04/20 02:35:40;;;;;;;12.80;8.73;;;;;;;3.92;90.63;100409.72;4993588;28;20059;-81
2022/04/20 02:38:10;;;;;;;12.50;9.25;;;;;;;4.08;90.10;100404.09;5012121;28;20056;-80
2022/04/20 02:40:37;;;;;;;13.23;10.10;;;;;;;3.78;89.45;100360.91;5016167;28;20520;-81
2022/04/20 02:43:03;;;;;;;15.05;10.20;;;;;;;3.89;89.54;100400.16;5016128;28;20025;-80
2022/04/20 02:45:30;;;;;;;11.93;9.25;;;;;;;3.72;89.11;100358.19;4995569;28;20038;-82
2022/04/20 02:47:55;;;;;;;9.07;8.18;;;;;;;3.79;89.60;100411.09;5013351;28;20053;-81
2022/04/20 02:50:21;;;;;;;12.57;9.98;;;;;;;3.80;89.78;100413.75;5002566;28;20091;-81
2022/04/20 02:52:48;;;;;;;13.57;9.80;;;;;;;3.38;89.91;100369.34;5000092;28;20489;-82
2022/04/20 02:55:13;;;;;;;12.93;9.95;;;;;;;3.65;90.64;100405.53;4999661;28;20049;-81
2022/04/20 02:57:39;;;;;;;11.95;9.77;;;;;;;3.60;89.94;100394.16;5016947;28;20029;-82
2022/04/20 03:00:05;;;;;;;12.10;9.77;;;;;;;3.51;90.05;100393.88;5008399;28;20066;-81
2022/04/20 03:02:34;;;;;;;11.93;10.20;;;;;;;3.57;90.07;100420.00;5013307;28;20106;-80
2022/04/20 03:05:00;;;;;;;15.07;10.00;;;;;;;3.73;89.87;100423.91;5015878;28;20049;-79
2022/04/20 03:07:26;;;;;;;13.85;11.00;;;;;;;3.44;89.82;100394.56;5011601;28;20919;-80
2022/04/20 03:09:53;;;;;;;14.07;10.20;;;;;;;3.66;90.13;100417.69;5014188;28;20121;-80
2022/04/20 03:12:19;;;;;;;12.35;9.90;;;;;;;3.75;89.60;100423.13;5010318;28;20042;-81
2022/04/20 03:14:44;;;;;;;13.25;10.20;;;;;;;3.72;89.22;100435.13;5009862;28;20055;-80
2022/04/20 03:17:10;;;;;;;13.55;10.82;;;;;;;3.59;89.53;100421.81;4993917;28;20037;-80
2022/04/20 03:19:36;;;;;;;13.32;10.57;;;;;;;3.59;89.81;100433.91;5012988;28;20101;-81
2022/04/20 03:22:02;;;;;;;14.00;10.80;;;;;;;3.33;89.54;100383.88;5007548;28;20405;-80
2022/04/20 03:24:28;;;;;;;12.95;9.93;;;;;;;3.47;89.89;100405.03;5013983;28;20037;-80
2022/04/20 03:26:53;;;;;;;13.02;10.57;;;;;;;3.75;89.55;100435.22;5012538;28;20061;-78
2022/04/20 03:29:20;;;;;;;12.07;9.85;;;;;;;3.26;89.62;100385.41;5012332;28;20136;-78
2022/04/20 03:31:46;;;;;;;12.15;10.77;;;;;;;3.35;89.96;100397.78;5008993;28;20184;-81
2022/04/20 03:34:12;;;;;;;12.45;10.48;;;;;;;3.81;89.82;100425.88;5012443;28;20525;-81
2022/04/20 03:36:37;;;;;;;12.02;10.55;;;;;;;3.86;89.36;100443.28;4996228;28;20133;-82
2022/04/20 03:39:04;;;;;;;19.50;11.65;;;;;;;3.88;89.17;100442.50;5006849;28;20053;-81
2022/04/20 03:41:30;;;;;;;13.73;11.05;;;;;;;3.66;89.06;100415.09;5011350;28;20109;-81
2022/04/20 03:43:56;;;;;;;13.73;11.23;;;;;;;3.93;89.16;100450.41;5008014;28;20503;-79
2022/04/20 03:46:23;;;;;;;13.85;12.45;;;;;;;3.63;89.28;100417.59;5014909;28;20060;-81
2022/04/20 03:48:50;;;;;;;11.70;10.52;;;;;;;3.79;88.45;100450.03;4995184;28;20037;-78
2022/04/20 03:51:16;;;;;;;14.63;12.32;;;;;;;3.86;89.33;100446.75;5009755;28;20130;-80
2022/04/20 03:53:41;;;;;;;12.10;10.45;;;;;;;2.93;89.06;100336.06;5004856;28;20065;-80
2022/04/20 03:56:07;;;;;;;13.52;10.95;;;;;;;3.90;89.08;100460.72;4990326;28;20461;-78
2022/04/20 03:58:33;;;;;;;14.13;11.07;;;;;;;3.52;89.83;100411.22;5010588;28;20128;-81
2022/04/20 04:00:58;;;;;;;13.85;11.00;;;;;;;3.87;89.34;100453.72;5008632;28;22740;-80
2022/04/20 04:03:24;;;;;;;14.40;11.27;;;;;;;3.96;89.44;100464.38;5009775;28;20061;-80
2022/04/20 04:05:50;;;;;;;13.48;11.65;;;;;;;3.16;89.30;100358.34;5007822;28;20441;-79
2022/04/20 04:08:15;;;;;;;21.13;11.57;;;;;;;3.94;88.80;100465.16;5006408;28;20049;-80
2022/04/20 04:10:41;;;;;;;14.93;11.70;;;;;;;3.97;89.06;100465.25;5005541;28;20144;-80
2022/04/20 04:13:06;;;;;;;14.95;11.05;;;;;;;3.78;88.85;100430.13;4973517;28;20049;-78
2022/04/20 04:15:33;;;;;;;15.75;10.50;;;;;;;3.25;89.39;100438.09;5006321;28;20474;-79
2022/04/20 04:17:59;;;;;;;13.77;11.75;;;;;;;3.48;89.98;100492.38;5006573;28;20127;-79
2022/04/20 04:20:28;;;;;;;14.50;11.02;;;;;;;3.89;90.40;100483.19;5008224;28;20077;-78
2022/04/20 04:22:55;;;;;;;19.63;13.77;;;;;;;4.00;90.02;100486.06;5004852;28;20049;-81
2022/04/20 04:25:23;;;;;;;18.98;13.55;;;;;;;3.90;89.27;100439.94;4993581;28;20148;-78
2022/04/20 04:27:48;;;;;;;14.95;11.23;;;;;;;4.05;89.82;100481.91;5008132;28;23663;-78
2022/04/20 04:30:14;;;;;;;26.42;13.68;;;;;;;3.54;89.68;100441.56;5014178;28;20583;-78
2022/04/20 04:32:40;;;;;;;14.43;12.48;;;;;;;3.58;90.92;100443.41;5008972;28;20057;-78
2022/04/20 04:35:08;;;;;;;15.82;13.45;;;;;;;3.75;90.74;100450.81;5005236;28;20085;-80
2022/04/20 04:37:34;;;;;;;16.33;12.02;;;;;;;4.21;90.37;100489.28;4996020;28;20045;-81
2022/04/20 04:40:03;;;;;;;17.38;14.20;;;;;;;4.33;90.30;100482.63;5011952;28;20055;-79
2022/04/20 04:42:28;;;;;;;14.07;12.43;;;;;;;4.02;90.36;100435.09;5009853;28;20029;-79
2022/04/20 04:48:36;;;;;;;15.00;12.50;;;;;;;4.47;90.27;100485.59;5010224;28;20045;-79
2022/04/20 04:50:23;;;;;;;13.95;12.55;;;;;;;4.70;89.19;100493.97;4983711;28;20125;-81
2022/04/20 04:52:49;;;;;;;16.88;11.77;;;;;;;4.49;89.16;100476.13;4972426;28;20050;-79
2022/04/20 04:55:14;;;;;;;16.13;12.55;;;;;;;4.42;89.31;100470.78;5012334;28;20581;-80
2022/04/20 04:57:40;;;;;;;20.13;14.13;;;;;;;4.33;89.53;100425.50;5005360;28;20045;-78
2022/04/20 05:00:07;;;;;;;15.52;12.85;;;;;;;4.49;89.32;100434.56;5004705;28;20138;-80
2022/04/20 05:02:33;;;;;;;15.85;12.32;;;;;;;4.64;88.87;100430.63;5008314;28;20053;-81
2022/04/20 05:04:58;;;;;;;16.23;13.98;;;;;;;4.53;88.72;100436.41;5010332;28;20049;-81
2022/04/20 05:07:30;;;;;;;14.90;12.77;;;;;;;5.10;88.98;100489.75;5009830;28;20425;-80
2022/04/20 05:09:55;;;;;;;18.90;13.77;;;;;;;4.84;88.07;100436.28;5002839;28;20132;-81
2022/04/20 05:12:21;;;;;;;16.77;11.93;;;;;;;5.10;87.05;100459.41;5009774;28;20030;-82
2022/04/20 05:14:47;;;;;;;14.23;11.80;;;;;;;5.40;87.65;100498.25;5009319;28;20057;-80
2022/04/20 05:17:13;;;;;;;15.82;14.02;;;;;;;5.03;87.09;100426.31;5008553;28;20057;-78
2022/04/20 05:19:40;;;;;;;15.50;13.68;;;;;;;5.40;86.11;100455.75;5012765;28;20089;-79
2022/04/20 05:22:06;;;;;;;15.88;12.45;;;;;;;5.84;86.12;100500.06;5007975;28;22009;-80
2022/04/20 05:24:35;;;;;;;15.07;13.57;;;;;;;5.68;85.30;100439.84;4995880;28;20111;-81
2022/04/20 05:27:02;;;;;;;17.27;13.07;;;;;;;6.45;82.89;100492.56;5014787;28;20049;-80
2022/04/20 05:29:27;;;;;;;17.20;13.82;;;;;;;6.72;83.38;100476.53;4996796;28;20060;-81
2022/04/20 05:31:55;;;;;;;15.13;12.40;;;;;;;7.17;82.31;100481.59;5006886;28;20984;-79
2022/04/20 05:34:23;;;;;;;19.65;12.85;;;;;;;7.47;81.05;100477.66;5009341;28;20060;-79
2022/04/20 05:42:18;;;;;;;16.27;12.13;;;;;;;7.89;76.24;100486.00;5015148;28;20073;-80
2022/04/20 05:44:44;;;;;;;27.48;13.95;;;;;;;8.22;76.48;100473.34;5020325;28;20052;-80
2022/04/20 05:47:11;;;;;;;19.45;13.15;;;;;;;8.17;76.71;100461.06;5023163;28;20115;-82
2022/04/20 05:49:37;;;;;;;21.50;14.13;;;;;;;8.23;77.49;100429.78;4997849;28;20067;-71
2022/04/20 05:52:03;;;;;;;15.73;11.82;;;;;;;8.64;76.22;100445.88;4999653;28;20955;-70
2022/04/20 05:54:28;;;;;;;14.25;12.43;;;;;;;8.99;75.26;100471.44;5018714;28;20045;-71
2022/04/20 05:56:54;;;;;;;13.55;12.15;;;;;;;8.65;74.85;100462.44;5013349;28;20060;-70
2022/04/20 05:59:19;;;;;;;14.05;11.40;;;;;;;8.78;75.60;100426.78;5017763;28;20037;-72
2022/04/20 06:01:45;;;;;;;15.93;12.77;;;;;;;8.70;72.75;100449.41;5018222;28;20045;-72
2022/04/20 06:04:10;;;;;;;15.77;12.30;;;;;;;8.62;73.41;100433.66;5017487;28;20761;-72
2022/04/20 06:06:36;;;;;;;14.75;11.95;;;;;;;8.71;74.70;100423.28;5001950;28;20095;-72
2022/04/20 06:09:02;;;;;;;16.10;12.50;;;;;;;9.08;73.87;100426.13;5019593;28;20617;-72
2022/04/20 06:11:29;;;;;;;14.48;12.95;;;;;;;9.37;73.85;100449.88;5001539;28;20050;-72
2022/04/20 06:13:56;;;;;;;22.20;12.82;;;;;;;9.13;75.67;100405.22;5015953;28;20099;-72
2022/04/20 06:16:21;;;;;;;15.90;11.93;;;;;;;9.16;73.33;100458.47;5014390;28;20045;-72
2022/04/20 06:18:47;;;;;;;15.57;13.55;;;;;;;9.04;72.17;100399.06;5016661;28;20087;-72
2022/04/20 06:21:13;;;;;;;14.18;12.20;;;;;;;8.93;73.30;100405.09;4983446;28;20030;-72
2022/04/20 06:23:38;;;;;;;19.35;11.40;;;;;;;9.08;74.78;100406.09;4996297;28;20045;-72
2022/04/20 06:26:04;;;;;;;14.45;11.60;;;;;;;9.02;70.71;100402.53;5018768;28;20128;-72
2022/04/20 06:28:31;;;;;;;14.80;11.30;;;;;;;9.30;71.27;100445.47;5001141;28;20072;-72
2022/04/20 06:30:56;;;;;;;16.52;11.45;;;;;;;9.41;72.60;100433.31;5017827;28;21261;-72
2022/04/20 06:33:23;;;;;;;15.93;12.25;;;;;;;9.38;71.72;100450.75;5016086;28;20512;-72
2022/04/20 06:35:49;;;;;;;14.13;11.18;;;;;;;9.15;72.07;100411.34;5014533;28;20053;-72
2022/04/20 06:38:15;;;;;;;20.83;11.75;;;;;;;9.00;73.40;100401.66;5002454;28;20048;-72
2022/04/20 06:40:41;;;;;;;14.30;10.77;;;;;;;9.12;72.10;100400.84;5021635;28;20041;-72
2022/04/20 06:43:09;;;;;;;10.85;9.23;;;;;;;9.15;71.95;100417.44;5002470;28;20493;-72
2022/04/20 06:45:34;;;;;;;21.73;11.45;;;;;;;9.41;71.36;100435.94;5020043;28;20052;-72
2022/04/20 06:48:02;;;;;;;12.95;10.88;;;;;;;9.08;72.06;100392.09;5019905;28;20037;-72
2022/04/20 06:50:29;;;;;;;15.45;12.15;;;;;;;9.12;72.17;100393.88;5020661;28;20053;-72
2022/04/20 06:58:31;;;;;;;13.27;9.75;;;;;;;9.17;70.08;100443.63;5017795;28;20176;-72
2022/04/20 07:00:58;;;;;;;13.57;9.48;;;;;;;8.93;68.60;100433.88;4986891;28;20029;-72
2022/04/20 07:03:24;;;;;;;11.65;10.38;;;;;;;8.79;67.52;100384.06;5017754;28;20030;-72
2022/04/20 07:05:49;;;;;;;11.30;8.43;;;;;;;9.19;70.14;100408.75;5018712;28;20046;-72
2022/04/20 07:08:15;;;;;;;11.48;8.20;;;;;;;9.15;69.33;100404.34;4974867;28;20046;-71
2022/04/20 07:10:41;;;;;;;14.35;9.57;;;;;;;9.26;66.87;100469.88;4996493;28;20065;-71
2022/04/20 07:13:07;;;;;;;12.07;8.70;;;;;;;9.37;67.67;100446.38;5009658;28;20500;-71
2022/04/20 07:15:32;;;;;;;15.00;9.13;;;;;;;9.07;70.52;100404.31;5019468;28;20035;-72
2022/04/20 07:17:58;;;;;;;13.05;6.90;;;;;;;9.36;66.79;100455.09;5017341;28;20508;-72
2022/04/20 07:20:23;;;;;;;11.70;7.18;;;;;;;9.49;67.08;100442.06;5014400;28;20061;-71
2022/04/20 07:22:51;;;;;;;14.05;8.75;;;;;;;9.47;65.49;100454.28;5018872;28;20041;-72
2022/04/20 07:25:17;;;;;;;10.50;7.85;;;;;;;9.34;67.15;100444.63;5017670;28;20050;-72
2022/04/20 07:27:47;;;;;;;17.33;11.02;;;;;;;9.14;67.29;100420.94;5000493;28;20026;-71
2022/04/20 07:30:12;;;;;;;12.93;9.02;;;;;;;9.21;66.58;100417.47;5016373;28;20049;-71
2022/04/20 07:32:38;;;;;;;13.93;11.60;;;;;;;9.56;66.42;100442.09;5001367;28;20071;-71
2022/04/20 07:35:04;;;;;;;13.80;10.45;;;;;;;9.48;64.89;100445.56;5001455;28;20132;-71
2022/04/20 07:37:31;;;;;;;15.55;11.98;;;;;;;8.77;65.73;100402.38;5010842;28;20046;-72
2022/04/20 07:39:56;;;;;;;23.10;11.15;;;;;;;9.00;65.61;100385.97;5017370;28;20025;-71
2022/04/20 07:42:22;;;;;;;18.08;11.23;;;;;;;9.56;66.93;100400.19;5017523;28;20053;-71
2022/04/20 07:44:47;;;;;;;14.88;11.23;;;;;;;9.85;67.51;100429.09;5017491;28;20048;-71
2022/04/20 07:47:13;;;;;;;16.17;12.32;;;;;;;9.49;66.37;100396.69;5018744;28;20136;-71
2022/04/20 07:52:24;;;;;;;13.55;10.25;;;;;;;9.58;66.25;100378.38;5018506;28;20060;-72
2022/04/20 07:54:50;;;;;;;16.75;11.23;;;;;;;9.59;63.83;100380.09;4996227;28;20049;-71
2022/04/20 07:57:15;;;;;;;14.00;11.55;;;;;;;9.49;64.16;100371.34;5019431;28;20040;-71
2022/04/20 07:59:42;;;;;;;22.98;11.80;;;;;;;9.70;63.79;100369.69;5001923;28;20059;-72
2022/04/20 08:02:08;;;;;;;13.32;11.50;;;;;;;9.84;64.43;100380.19;5018212;28;20053;-72
2022/04/20 08:04:34;;;;;;;14.82;13.18;;;;;;;9.90;63.89;100364.47;5014640;28;20562;-72
2022/04/20 08:06:59;;;;;;;17.08;11.52;;;;;;;10.12;62.74;100376.75;5016795;28;21174;-72
2022/04/20 08:09:27;;;;;;;16.52;12.80;;;;;;;10.07;62.91;100393.34;5015228;28;20045;-72
2022/04/20 08:11:53;;;;;;;19.80;11.23;;;;;;;10.14;64.97;100367.13;5014573;28;20104;-71
2022/04/20 08:14:19;;;;;;;14.55;11.35;;;;;;;10.53;62.50;100394.28;5018110;28;20052;-72
2022/04/20 08:16:46;;;;;;;11.93;10.68;;;;;;;10.27;62.56;100367.13;5015217;28;20045;-72
2022/04/20 08:19:13;;;;;;;17.23;11.82;;;;;;;10.39;62.50;100350.56;5014666;28;20390;-71
2022/04/20 08:21:40;;;;;;;13.07;10.23;;;;;;;10.22;60.60;100319.94;5002075;28;20144;-72
2022/04/20 08:24:06;;;;;;;15.30;10.65;;;;;;;10.57;60.73;100380.28;5000009;28;20045;-72
2022/04/20 08:26:32;;;;;;;11.10;9.90;;;;;;;10.74;65.20;100379.41;5017112;28;20045;-72
2022/04/20 08:28:57;;;;;;;11.82;9.13;;;;;;;10.68;61.26;100382.91;4995347;28;22028;-72
2022/04/20 08:31:29;;;;;;;10.30;7.00;;;;;;;10.28;56.20;100337.44;4999906;28;20060;-71
2022/04/20 08:33:55;;;;;;;11.50;9.32;;;;;;;10.56;56.40;100347.06;5004597;28;20033;-71
2022/04/20 08:36:27;;;;;;;10.20;8.95;;;;;;;10.59;56.33;100369.81;5017661;28;20465;-71
2022/04/20 08:38:59;;;;;;;9.93;7.43;;;;;;;10.61;54.98;100386.41;5008015;28;20049;-73
2022/04/20 08:41:24;;;;;;;12.75;7.88;;;;;;;10.52;53.58;100391.66;5009580;28;20077;-71
2022/04/20 08:43:51;;;;;;;10.93;6.65;;;;;;;10.33;53.03;100383.78;5019534;28;20115;-72
2022/04/20 08:46:17;;;;;;;9.65;8.27;;;;;;;10.37;54.62;100389.91;4999977;28;20045;-72
2022/04/20 08:48:43;;;;;;;13.13;9.50;;;;;;;11.02;56.33;100400.34;5016620;28;20041;-72
2022/04/20 08:51:09;;;;;;;11.52;9.32;;;;;;;10.78;56.07;100366.25;4996846;28;20053;-71
2022/04/20 08:53:36;;;;;;;16.83;10.80;;;;;;;10.83;56.64;100349.66;5014935;28;20057;-73
2022/04/20 08:58:49;;;;;;;8.45;5.82;;;;;;;11.11;50.18;100380.19;5017084;28;22700;-73
2022/04/20 09:01:16;;;;;;;12.45;6.90;;;;;;;11.71;51.91;100411.50;4974175;28;20100;-72
2022/04/20 09:03:44;;;;;;;9.55;6.07;;;;;;;11.60;54.22;100363.38;5003086;28;20053;-73
2022/04/20 09:06:09;;;;;;;8.43;6.57;;;;;;;11.86;53.89;100410.56;4994590;28;20377;-72
2022/04/20 09:08:38;;;;;;;8.07;6.80;;;;;;;12.02;54.35;100395.59;5017071;28;20056;-72
2022/04/20 09:11:04;;;;;;;12.07;8.30;;;;;;;12.03;54.75;100400.88;5015476;28;20042;-73
2022/04/20 09:13:33;;;;;;;10.48;7.88;;;;;;;11.57;53.72;100350.25;5018436;28;20087;-72
2022/04/20 09:16:05;;;;;;;9.10;7.93;;;;;;;12.19;53.82;100396.34;5019770;28;20030;-72
2022/04/20 09:18:30;;;;;;;12.43;8.85;;;;;;;12.30;52.98;100400.69;5020273;28;20036;-72
2022/04/20 09:21:20;;;;;;;7.85;6.85;;;;;;;12.28;52.20;100371.75;5019128;28;20049;-72
2022/04/20 09:23:45;;;;;;;10.80;7.43;;;;;;;12.39;54.17;100383.06;5020332;28;20034;-72
2022/04/20 09:26:13;;;;;;;16.92;7.35;;;;;;;12.48;53.43;100410.19;5018694;28;20048;-72
2022/04/20 09:28:40;;;;;;;9.07;6.80;;;;;;;12.12;52.40;100386.75;4998880;28;20049;-72
2022/04/20 09:31:07;;;;;;;11.23;5.63;;;;;;;12.44;51.13;100404.94;5021779;28;20052;-72
2022/04/20 09:33:59;;;;;;;10.95;7.07;;;;;;;12.36;50.68;100375.19;5003739;28;20041;-72
2022/04/20 09:36:48;;;;;;;10.43;7.05;;;;;;;12.30;50.58;100406.81;5003871;28;20149;-72
2022/04/20 09:39:14;;;;;;;12.88;6.82;;;;;;;12.55;52.76;100409.25;5020564;28;20171;-73
2022/04/20 09:42:02;;;;;;;7.38;6.25;;;;;;;12.94;50.66;100389.56;5016920;28;20056;-72
2022/04/20 09:44:29;;;;;;;13.85;5.15;;;;;;;13.20;49.58;100415.66;5016995;28;20045;-72
2022/04/20 09:50:04;;;;;;;5.70;4.30;;;;;;;12.99;49.75;100376.34;5017571;28;20052;-72
2022/04/20 09:52:36;;;;;;;6.40;3.63;;;;;;;12.48;50.72;100362.81;5020836;28;20131;-72
2022/04/20 09:55:06;;;;;;;6.78;4.38;;;;;;;12.29;47.00;100405.09;5021432;28;20034;-72
2022/04/20 09:57:32;;;;;;;7.25;5.07;;;;;;;12.26;49.73;100357.72;5003575;28;20025;-72
2022/04/20 10:00:09;;;;;;;6.68;4.78;;;;;;;12.78;49.40;100401.16;4999756;28;20053;-72
2022/04/20 10:02:44;;;;;;;6.97;5.75;;;;;;;12.85;48.97;100369.50;5016510;28;20134;-72
2022/04/20 10:05:11;;;;;;;10.77;5.13;;;;;;;13.44;51.85;100387.31;5018909;28;20224;-72
2022/04/20 10:07:37;;;;;;;5.45;4.00;;;;;;;13.14;47.61;100352.50;5020783;28;20524;-72
2022/04/20 10:10:04;;;;;;;6.28;4.15;;;;;;;12.62;47.41;100408.34;5021079;28;20080;-72
2022/04/20 10:12:33;;;;;;;7.22;5.47;;;;;;;12.45;51.97;100390.91;4986442;28;20163;-73
2022/04/20 10:17:50;;;;;;;8.82;4.85;;;;;;;13.18;49.82;100370.03;5003412;28;20084;-71
2022/04/20 10:20:17;;;;;;;6.63;4.60;;;;;;;13.18;49.04;100340.16;5017366;28;20050;-71
2022/04/20 10:22:43;;;;;;;10.32;6.10;;;;;;;12.74;48.13;100331.00;5018980;28;20045;-72
2022/04/20 10:25:10;;;;;;;5.93;4.75;;;;;;;12.06;47.63;100322.78;5015032;28;20041;-71
2022/04/20 10:28:03;;;;;;;7.88;5.55;;;;;;;12.51;48.63;100333.84;5019945;28;20084;-72
2022/04/20 10:30:45;;;;;;;6.63;5.03;;;;;;;12.87;48.27;100320.28;5015785;28;20063;-72
2022/04/20 10:33:23;;;;;;;6.90;4.47;;;;;;;12.53;50.24;100311.88;5015282;28;20249;-72
2022/04/20 10:36:09;;;;;;;10.30;5.80;;;;;;;13.78;49.19;100348.19;4986709;28;20148;-73
2022/04/20 10:38:35;;;;;;;6.40;4.65;;;;;;;13.41;44.84;100350.44;5021065;28;20696;-71
2022/04/20 10:41:13;;;;;;;6.15;4.72;;;;;;;13.69;46.79;100357.09;5019180;28;20042;-72
2022/04/20 10:43:42;;;;;;;6.93;4.90;;;;;;;13.96;48.45;100327.72;5021121;28;20049;-72
2022/04/20 10:46:17;;;;;;;9.90;5.00;;;;;;;14.08;46.72;100361.81;5021045;28;20045;-72
2022/04/20 10:49:07;;;;;;;13.23;5.22;;;;;;;14.01;47.11;100333.78;5021149;28;20092;-71
2022/04/20 10:51:44;;;;;;;9.48;4.15;;;;;;;13.48;45.36;100323.97;5017357;28;19960;-71
2022/04/20 10:54:24;;;;;;;13.02;4.60;;;;;;;13.23;45.89;100365.56;5019360;28;20037;-71
2022/04/20 10:57:00;;;;;;;12.18;6.82;;;;;;;13.35;45.35;100364.59;5003259;28;20045;-71
2022/04/20 10:59:28;;;;;;;8.32;4.88;;;;;;;13.69;45.81;100354.44;5018060;28;20100;-71
2022/04/20 11:02:02;;;;;;;7.30;3.50;;;;;;;13.12;43.81;100359.53;5019799;28;20049;-73
2022/04/20 11:04:31;;;;;;;10.00;6.05;;;;;;;13.88;43.77;100357.72;5001548;28;20808;-71
2022/04/20 11:07:03;;;;;;;8.95;5.00;;;;;;;13.88;43.36;100334.00;5018769;28;20138;-73
2022/04/20 11:09:47;;;;;;;8.18;5.20;;;;;;;13.82;42.47;100352.53;5019490;28;20481;-73
2022/04/20 11:21:03;;;;;;;7.25;4.05;;;;;;;14.09;45.44;100348.63;5017129;28;20123;-72
2022/04/20 11:24:03;;;;;;;7.85;4.25;;;;;;;14.00;44.72;100310.94;5002081;28;20045;-72
2022/04/20 11:26:29;;;;;;;9.23;4.55;;;;;;;13.92;43.12;100321.59;5004506;28;20053;-72
2022/04/20 11:28:57;;;;;;;13.27;6.25;;;;;;;13.56;44.07;100294.91;5018819;28;20161;-72
2022/04/20 11:31:23;;;;;;;4.65;3.30;;;;;;;12.51;41.08;100312.78;5020381;28;20144;-72
2022/04/20 11:33:51;;;;;;;4.65;3.05;;;;;;;12.93;43.58;100298.31;5018524;28;20033;-71
2022/04/20 11:36:17;;;;;;;4.75;2.90;;;;;;;13.36;43.68;100315.38;5018573;28;20068;-72
2022/04/20 11:38:46;;;;;;;7.10;3.28;;;;;;;13.53;44.18;100329.19;5013565;28;20057;-72
2022/04/20 11:41:16;;;;;;;9.77;3.65;;;;;;;13.54;46.39;100333.59;4999994;28;20054;-72
2022/04/20 11:43:41;;;;;;;4.05;2.80;;;;;;;13.29;45.35;100302.25;5020493;28;20108;-72
2022/04/20 11:46:08;;;;;;;6.60;3.03;;;;;;;13.18;47.10;100283.06;5001684;28;20538;-72
2022/04/20 11:48:53;;;;;;;10.45;4.18;;;;;;;12.62;50.11;100281.97;5002866;28;20039;-78
2022/04/20 11:51:23;;;;;;;5.57;4.00;;;;;;;12.82;48.62;100300.19;4996256;28;20047;-78
2022/04/20 11:53:49;;;;;;;6.65;3.75;;;;;;;12.46;49.20;100268.97;5015578;28;20068;-78
2022/04/20 11:56:15;;;;;;;9.07;3.33;;;;;;;12.77;49.82;100304.63;4999127;28;20041;-73
2022/04/20 11:58:49;;;;;;;7.50;4.07;;;;;;;12.81;51.72;100303.72;5018179;28;20068;-72
2022/04/20 12:01:15;;;;;;;7.30;4.88;;;;;;;12.85;49.54;100268.53;5020174;28;20117;-73
2022/04/20 12:03:43;;;;;;;5.03;4.05;;;;;;;12.91;48.46;100304.47;5019527;28;20123;-72